sensor_id;sensor_type;location;lat;lon;timestamp;pressure;altitude;pressure_sealevel;temperature;humidity
35910;BME280;22004;49.120;-0.200;2023-04-29T00:02:18;101608.19;;;13.90;76.37
35910;BME280;22004;49.120;-0.200;2023-04-29T00:04:43;101605.94;;;13.79;76.11
35910;BME280;22004;49.120;-0.200;2023-04-29T00:07:08;101603.81;;;13.89;76.46
35910;BME280;22004;49.120;-0.200;2023-04-29T00:09:34;101602.25;;;13.72;77.18
35910;BME280;22004;49.120;-0.200;2023-04-29T00:12:00;101614.56;;;13.75;76.84
35910;BME280;22004;49.120;-0.200;2023-04-29T00:14:26;101620.00;;;13.66;76.83
35910;BME280;22004;49.120;-0.200;2023-04-29T00:16:52;101611.84;;;13.29;76.73
35910;BME280;22004;49.120;-0.200;2023-04-29T00:19:17;101603.69;;;13.60;76.66
35910;BME280;22004;49.120;-0.200;2023-04-29T00:21:42;101604.13;;;13.71;77.01
35910;BME280;22004;49.120;-0.200;2023-04-29T00:24:08;101606.03;;;13.86;76.42
35910;BME280;22004;49.120;-0.200;2023-04-29T00:26:33;101601.13;;;13.89;76.59
35910;BME280;22004;49.120;-0.200;2023-04-29T00:28:59;101611.09;;;13.89;76.40
35910;BME280;22004;49.120;-0.200;2023-04-29T00:31:25;101599.84;;;13.77;75.98
35910;BME280;22004;49.120;-0.200;2023-04-29T00:33:50;101608.09;;;13.30;76.93
35910;BME280;22004;49.120;-0.200;2023-04-29T00:36:16;101605.97;;;13.71;76.67
35910;BME280;22004;49.120;-0.200;2023-04-29T00:38:41;101608.22;;;13.67;76.77
35910;BME280;22004;49.120;-0.200;2023-04-29T00:41:07;101596.41;;;13.06;77.96
35910;BME280;22004;49.120;-0.200;2023-04-29T00:43:33;101595.72;;;13.66;77.05
35910;BME280;22004;49.120;-0.200;2023-04-29T00:45:58;101599.75;;;13.70;76.62
35910;BME280;22004;49.120;-0.200;2023-04-29T00:48:24;101592.44;;;13.56;77.11
35910;BME280;22004;49.120;-0.200;2023-04-29T00:50:49;101590.97;;;13.45;77.33
35910;BME280;22004;49.120;-0.200;2023-04-29T00:53:15;101583.66;;;13.77;76.48
35910;BME280;22004;49.120;-0.200;2023-04-29T00:55:43;101586.88;;;13.58;77.11
35910;BME280;22004;49.120;-0.200;2023-04-29T00:58:08;101586.00;;;13.80;76.59
35910;BME280;22004;49.120;-0.200;2023-04-29T01:00:34;101587.56;;;13.75;76.23
35910;BME280;22004;49.120;-0.200;2023-04-29T01:03:01;101587.88;;;13.57;76.26
35910;BME280;22004;49.120;-0.200;2023-04-29T01:05:26;101591.59;;;13.56;76.79
35910;BME280;22004;49.120;-0.200;2023-04-29T01:10:28;101590.22;;;13.60;77.10
35910;BME280;22004;49.120;-0.200;2023-04-29T01:13:06;101588.59;;;13.51;76.50
35910;BME280;22004;49.120;-0.200;2023-04-29T01:18:13;101578.16;;;13.70;76.82
35910;BME280;22004;49.120;-0.200;2023-04-29T01:20:40;101588.75;;;13.72;76.79
35910;BME280;22004;49.120;-0.200;2023-04-29T01:23:06;101578.25;;;13.77;76.65
35910;BME280;22004;49.120;-0.200;2023-04-29T01:25:31;101583.66;;;13.77;76.54
35910;BME280;22004;49.120;-0.200;2023-04-29T01:33:44;101581.53;;;13.73;76.48
35910;BME280;22004;49.120;-0.200;2023-04-29T01:38:56;101578.69;;;13.66;76.67
35910;BME280;22004;49.120;-0.200;2023-04-29T01:41:44;101578.69;;;13.66;77.11
35910;BME280;22004;49.120;-0.200;2023-04-29T01:44:21;101579.47;;;13.75;76.48
35910;BME280;22004;49.120;-0.200;2023-04-29T01:46:51;101585.88;;;13.51;76.64
35910;BME280;22004;49.120;-0.200;2023-04-29T01:49:23;101581.88;;;13.69;76.91
35910;BME280;22004;49.120;-0.200;2023-04-29T01:51:49;101585.88;;;13.51;76.85
35910;BME280;22004;49.120;-0.200;2023-04-29T01:54:15;101584.09;;;13.66;76.83
35910;BME280;22004;49.120;-0.200;2023-04-29T01:56:40;101585.59;;;13.68;76.79
35910;BME280;22004;49.120;-0.200;2023-04-29T01:59:06;101583.56;;;13.48;77.11
35910;BME280;22004;49.120;-0.200;2023-04-29T02:01:32;101587.03;;;13.56;76.93
35910;BME280;22004;49.120;-0.200;2023-04-29T02:03:58;101587.16;;;13.63;77.11
35910;BME280;22004;49.120;-0.200;2023-04-29T02:06:23;101583.56;;;13.70;76.66
35910;BME280;22004;49.120;-0.200;2023-04-29T02:08:49;101594.25;;;13.64;76.41
35910;BME280;22004;49.120;-0.200;2023-04-29T02:11:14;101592.31;;;13.50;77.23
35910;BME280;22004;49.120;-0.200;2023-04-29T02:13:40;101591.28;;;13.51;76.75
35910;BME280;22004;49.120;-0.200;2023-04-29T02:16:10;101594.31;;;13.16;78.82
35910;BME280;22004;49.120;-0.200;2023-04-29T02:18:36;101593.97;;;13.51;76.94
35910;BME280;22004;49.120;-0.200;2023-04-29T02:21:02;101592.25;;;13.58;77.24
35910;BME280;22004;49.120;-0.200;2023-04-29T02:23:27;101588.47;;;13.67;76.86
35910;BME280;22004;49.120;-0.200;2023-04-29T02:25:53;101592.69;;;13.69;76.66
35910;BME280;22004;49.120;-0.200;2023-04-29T02:28:19;101599.44;;;13.65;76.50
35910;BME280;22004;49.120;-0.200;2023-04-29T02:30:44;101600.72;;;13.78;76.28
35910;BME280;22004;49.120;-0.200;2023-04-29T02:33:10;101597.81;;;13.56;77.00
35910;BME280;22004;49.120;-0.200;2023-04-29T02:35:35;101602.81;;;13.67;76.73
35910;BME280;22004;49.120;-0.200;2023-04-29T02:38:01;101607.16;;;13.45;77.35
35910;BME280;22004;49.120;-0.200;2023-04-29T02:40:26;101596.56;;;13.44;77.63
35910;BME280;22004;49.120;-0.200;2023-04-29T02:42:52;101603.91;;;13.58;76.79
35910;BME280;22004;49.120;-0.200;2023-04-29T02:45:17;101608.50;;;13.50;77.59
35910;BME280;22004;49.120;-0.200;2023-04-29T02:47:42;101603.16;;;13.64;76.81
35910;BME280;22004;49.120;-0.200;2023-04-29T02:50:08;101599.25;;;13.67;76.83
35910;BME280;22004;49.120;-0.200;2023-04-29T02:52:34;101602.16;;;13.65;76.78
35910;BME280;22004;49.120;-0.200;2023-04-29T02:54:59;101601.66;;;13.62;76.88
35910;BME280;22004;49.120;-0.200;2023-04-29T02:57:24;101604.06;;;13.57;77.21
35910;BME280;22004;49.120;-0.200;2023-04-29T02:59:50;101610.88;;;13.13;78.59
35910;BME280;22004;49.120;-0.200;2023-04-29T03:02:15;101605.25;;;13.54;77.36
35910;BME280;22004;49.120;-0.200;2023-04-29T03:04:41;101601.59;;;13.70;76.51
35910;BME280;22004;49.120;-0.200;2023-04-29T03:07:06;101603.34;;;13.63;76.61
35910;BME280;22004;49.120;-0.200;2023-04-29T03:09:32;101603.50;;;13.61;76.84
35910;BME280;22004;49.120;-0.200;2023-04-29T03:11:57;101610.88;;;13.44;77.47
35910;BME280;22004;49.120;-0.200;2023-04-29T03:14:23;101608.88;;;13.69;76.35
35910;BME280;22004;49.120;-0.200;2023-04-29T03:16:48;101604.34;;;13.62;76.55
35910;BME280;22004;49.120;-0.200;2023-04-29T03:19:13;101611.50;;;13.55;76.73
35910;BME280;22004;49.120;-0.200;2023-04-29T03:21:39;101614.69;;;13.58;76.63
35910;BME280;22004;49.120;-0.200;2023-04-29T03:24:05;101614.69;;;13.58;76.56
35910;BME280;22004;49.120;-0.200;2023-04-29T03:26:30;101617.84;;;13.39;77.60
35910;BME280;22004;49.120;-0.200;2023-04-29T03:28:56;101628.06;;;12.57;78.90
35910;BME280;22004;49.120;-0.200;2023-04-29T03:31:23;101630.00;;;13.35;78.13
35910;BME280;22004;49.120;-0.200;2023-04-29T03:33:49;101632.56;;;13.20;78.51
35910;BME280;22004;49.120;-0.200;2023-04-29T03:36:15;101631.94;;;13.49;76.89
35910;BME280;22004;49.120;-0.200;2023-04-29T03:38:40;101633.84;;;13.40;77.04
35910;BME280;22004;49.120;-0.200;2023-04-29T03:41:06;101632.91;;;13.56;77.05
35910;BME280;22004;49.120;-0.200;2023-04-29T03:43:31;101628.97;;;12.97;78.51
35910;BME280;22004;49.120;-0.200;2023-04-29T03:45:57;101631.13;;;13.40;77.55
35910;BME280;22004;49.120;-0.200;2023-04-29T03:48:23;101634.75;;;13.33;77.99
35910;BME280;22004;49.120;-0.200;2023-04-29T03:50:49;101632.41;;;13.22;77.13
35910;BME280;22004;49.120;-0.200;2023-04-29T03:53:14;101642.69;;;13.18;77.73
35910;BME280;22004;49.120;-0.200;2023-04-29T03:55:40;101632.13;;;13.48;76.95
35910;BME280;22004;49.120;-0.200;2023-04-29T03:58:05;101635.38;;;12.96;78.04
35910;BME280;22004;49.120;-0.200;2023-04-29T04:00:31;101627.03;;;13.22;78.10
35910;BME280;22004;49.120;-0.200;2023-04-29T04:02:57;101635.09;;;13.30;77.66
35910;BME280;22004;49.120;-0.200;2023-04-29T04:05:22;101623.28;;;13.31;77.37
35910;BME280;22004;49.120;-0.200;2023-04-29T04:07:50;101626.88;;;13.07;77.53
35910;BME280;22004;49.120;-0.200;2023-04-29T04:10:16;101629.09;;;12.64;79.30
35910;BME280;22004;49.120;-0.200;2023-04-29T04:12:41;101624.28;;;13.30;78.01
35910;BME280;22004;49.120;-0.200;2023-04-29T04:15:07;101631.75;;;13.11;78.91
35910;BME280;22004;49.120;-0.200;2023-04-29T04:17:33;101634.22;;;12.82;79.02
35910;BME280;22004;49.120;-0.200;2023-04-29T04:19:58;101636.56;;;13.32;77.83
35910;BME280;22004;49.120;-0.200;2023-04-29T04:22:23;101627.28;;;12.96;78.84
35910;BME280;22004;49.120;-0.200;2023-04-29T04:24:49;101634.34;;;13.44;76.95
35910;BME280;22004;49.120;-0.200;2023-04-29T04:27:14;101634.75;;;13.33;76.70
35910;BME280;22004;49.120;-0.200;2023-04-29T04:29:39;101640.06;;;13.41;76.90
35910;BME280;22004;49.120;-0.200;2023-04-29T04:32:05;101641.72;;;13.11;76.34
35910;BME280;22004;49.120;-0.200;2023-04-29T04:34:30;101645.53;;;13.33;77.69
35910;BME280;22004;49.120;-0.200;2023-04-29T04:36:56;101650.91;;;13.33;77.64
35910;BME280;22004;49.120;-0.200;2023-04-29T04:39:21;101652.06;;;13.38;77.29
35910;BME280;22004;49.120;-0.200;2023-04-29T04:41:47;101661.78;;;13.48;76.92
35910;BME280;22004;49.120;-0.200;2023-04-29T04:44:13;101652.19;;;13.45;76.93
35910;BME280;22004;49.120;-0.200;2023-04-29T04:46:38;101654.47;;;13.25;77.27
35910;BME280;22004;49.120;-0.200;2023-04-29T04:49:04;101657.09;;;13.41;77.21
35910;BME280;22004;49.120;-0.200;2023-04-29T04:51:30;101662.41;;;13.18;77.39
35910;BME280;22004;49.120;-0.200;2023-04-29T04:53:55;101658.44;;;13.37;77.35
35910;BME280;22004;49.120;-0.200;2023-04-29T04:56:20;101666.84;;;13.42;77.28
35910;BME280;22004;49.120;-0.200;2023-04-29T04:58:46;101661.47;;;13.42;76.94
35910;BME280;22004;49.120;-0.200;2023-04-29T05:01:11;101675.31;;;13.39;77.14
35910;BME280;22004;49.120;-0.200;2023-04-29T05:03:37;101677.34;;;13.37;77.40
35910;BME280;22004;49.120;-0.200;2023-04-29T05:06:02;101682.28;;;13.57;76.37
35910;BME280;22004;49.120;-0.200;2023-04-29T05:08:28;101685.09;;;13.40;76.98
35910;BME280;22004;49.120;-0.200;2023-04-29T05:10:54;101674.09;;;13.42;77.04
35910;BME280;22004;49.120;-0.200;2023-04-29T05:13:19;101684.38;;;13.47;76.47
35910;BME280;22004;49.120;-0.200;2023-04-29T05:15:45;101681.22;;;13.43;77.03
35910;BME280;22004;49.120;-0.200;2023-04-29T05:18:10;101689.94;;;13.45;nan
35910;BME280;22004;49.120;-0.200;2023-04-29T05:20:36;101684.91;;;13.42;77.19
35910;BME280;22004;49.120;-0.200;2023-04-29T05:23:02;101691.81;;;13.44;76.84
35910;BME280;22004;49.120;-0.200;2023-04-29T05:25:28;101689.44;;;13.41;76.99
35910;BME280;22004;49.120;-0.200;2023-04-29T05:27:53;101695.94;;;13.16;77.64
35910;BME280;22004;49.120;-0.200;2023-04-29T05:30:19;101695.91;;;13.32;77.30
35910;BME280;22004;49.120;-0.200;2023-04-29T05:32:44;101707.59;;;13.56;76.43
35910;BME280;22004;49.120;-0.200;2023-04-29T05:35:10;101708.53;;;13.40;77.09
35910;BME280;22004;49.120;-0.200;2023-04-29T05:37:36;101706.34;;;13.35;77.14
35910;BME280;22004;49.120;-0.200;2023-04-29T05:40:01;101701.44;;;13.39;77.10
35910;BME280;22004;49.120;-0.200;2023-04-29T05:42:27;101713.47;;;13.12;77.80
35910;BME280;22004;49.120;-0.200;2023-04-29T05:44:52;101710.91;;;13.35;77.25
35910;BME280;22004;49.120;-0.200;2023-04-29T05:47:17;101712.06;;;13.40;77.18
35910;BME280;22004;49.120;-0.200;2023-04-29T05:49:43;101714.75;;;13.40;76.89
35910;BME280;22004;49.120;-0.200;2023-04-29T05:52:08;101712.19;;;13.47;76.91
35910;BME280;22004;49.120;-0.200;2023-04-29T05:54:33;101715.66;;;13.33;77.30
35910;BME280;22004;49.120;-0.200;2023-04-29T05:56:59;101716.81;;;13.30;77.55
35910;BME280;22004;49.120;-0.200;2023-04-29T05:59:31;101716.69;;;13.07;77.47
35910;BME280;22004;49.120;-0.200;2023-04-29T06:01:57;101717.28;;;13.42;77.33
35910;BME280;22004;49.120;-0.200;2023-04-29T06:04:23;101720.47;;;13.45;77.02
35910;BME280;22004;49.120;-0.200;2023-04-29T06:06:50;101715.59;;;13.41;76.94
35910;BME280;22004;49.120;-0.200;2023-04-29T06:09:15;101720.13;;;13.49;76.65
35910;BME280;22004;49.120;-0.200;2023-04-29T06:11:41;101715.56;;;13.49;76.63
35910;BME280;22004;49.120;-0.200;2023-04-29T06:14:06;101716.72;;;13.55;76.44
35910;BME280;22004;49.120;-0.200;2023-04-29T06:16:32;101722.44;;;13.52;76.50
35910;BME280;22004;49.120;-0.200;2023-04-29T06:18:58;101726.56;;;13.39;76.65
35910;BME280;22004;49.120;-0.200;2023-04-29T06:21:24;101735.00;;;12.64;79.15
35910;BME280;22004;49.120;-0.200;2023-04-29T06:23:52;101732.44;;;12.63;78.97
35910;BME280;22004;49.120;-0.200;2023-04-29T06:26:17;101734.53;;;13.25;77.83
35910;BME280;22004;49.120;-0.200;2023-04-29T06:28:43;101741.63;;;13.09;77.24
35910;BME280;22004;49.120;-0.200;2023-04-29T06:31:08;101742.84;;;12.99;78.65
35910;BME280;22004;49.120;-0.200;2023-04-29T06:33:34;101742.34;;;12.87;79.42
35910;BME280;22004;49.120;-0.200;2023-04-29T06:35:59;101746.50;;;13.22;77.79
35910;BME280;22004;49.120;-0.200;2023-04-29T06:38:24;101734.75;;;13.54;76.58
35910;BME280;22004;49.120;-0.200;2023-04-29T06:40:50;101739.97;;;13.56;76.43
35910;BME280;22004;49.120;-0.200;2023-04-29T06:43:15;101737.28;;;13.56;75.87
35910;BME280;22004;49.120;-0.200;2023-04-29T06:45:40;101743.56;;;13.48;76.53
35910;BME280;22004;49.120;-0.200;2023-04-29T06:48:06;101746.91;;;12.86;77.11
35910;BME280;22004;49.120;-0.200;2023-04-29T06:50:32;101752.31;;;12.62;79.32
35910;BME280;22004;49.120;-0.200;2023-04-29T06:52:58;101746.72;;;13.04;77.53
35910;BME280;22004;49.120;-0.200;2023-04-29T06:55:23;101750.53;;;13.34;77.21
35910;BME280;22004;49.120;-0.200;2023-04-29T06:57:48;101751.88;;;13.30;77.22
35910;BME280;22004;49.120;-0.200;2023-04-29T07:00:14;101752.59;;;13.63;76.05
35910;BME280;22004;49.120;-0.200;2023-04-29T07:02:40;101750.06;;;13.62;76.09
35910;BME280;22004;49.120;-0.200;2023-04-29T07:05:05;101757.06;;;13.79;75.50
35910;BME280;22004;49.120;-0.200;2023-04-29T07:07:31;101756.25;;;13.70;75.54
35910;BME280;22004;49.120;-0.200;2023-04-29T07:09:56;101753.84;;;13.53;76.34
35910;BME280;22004;49.120;-0.200;2023-04-29T07:12:22;101763.56;;;12.82;78.10
35910;BME280;22004;49.120;-0.200;2023-04-29T07:14:47;101764.84;;;13.43;77.15
35910;BME280;22004;49.120;-0.200;2023-04-29T07:17:12;101761.22;;;13.59;75.65
35910;BME280;22004;49.120;-0.200;2023-04-29T07:19:38;101764.31;;;13.48;76.68
35910;BME280;22004;49.120;-0.200;2023-04-29T07:22:03;101767.50;;;13.82;75.47
35910;BME280;22004;49.120;-0.200;2023-04-29T07:24:28;101763.00;;;13.75;75.60
35910;BME280;22004;49.120;-0.200;2023-04-29T07:26:54;101768.56;;;13.73;75.49
35910;BME280;22004;49.120;-0.200;2023-04-29T07:29:19;101769.09;;;13.68;76.15
35910;BME280;22004;49.120;-0.200;2023-04-29T07:31:44;101774.53;;;13.91;74.92
35910;BME280;22004;49.120;-0.200;2023-04-29T07:34:10;101773.56;;;13.84;75.05
35910;BME280;22004;49.120;-0.200;2023-04-29T07:36:35;101780.00;;;13.83;75.66
35910;BME280;22004;49.120;-0.200;2023-04-29T07:39:01;101779.09;;;13.91;75.02
35910;BME280;22004;49.120;-0.200;2023-04-29T07:41:26;101784.81;;;13.96;74.76
35910;BME280;22004;49.120;-0.200;2023-04-29T07:43:52;101793.09;;;13.94;74.59
35910;BME280;22004;49.120;-0.200;2023-04-29T07:46:17;101794.22;;;14.00;74.59
35910;BME280;22004;49.120;-0.200;2023-04-29T07:48:43;101790.06;;;13.89;74.74
35910;BME280;22004;49.120;-0.200;2023-04-29T07:51:13;101793.91;;;13.95;74.86
35910;BME280;22004;49.120;-0.200;2023-04-29T07:53:39;101783.44;;;14.00;74.48
35910;BME280;22004;49.120;-0.200;2023-04-29T07:56:07;101792.53;;;14.07;74.41
35910;BME280;22004;49.120;-0.200;2023-04-29T07:58:33;101792.03;;;13.73;75.63
35910;BME280;22004;49.120;-0.200;2023-04-29T08:01:09;101785.75;;;13.72;75.65
35910;BME280;22004;49.120;-0.200;2023-04-29T08:03:35;101796.66;;;13.87;75.14
35910;BME280;22004;49.120;-0.200;2023-04-29T08:06:02;101795.81;;;13.47;76.52
35910;BME280;22004;49.120;-0.200;2023-04-29T08:08:31;101798.06;;;13.83;75.20
35910;BME280;22004;49.120;-0.200;2023-04-29T08:10:57;101798.00;;;13.91;75.11
35910;BME280;22004;49.120;-0.200;2023-04-29T08:13:22;101797.47;;;13.95;75.03
35910;BME280;22004;49.120;-0.200;2023-04-29T08:15:48;101802.63;;;14.05;74.40
35910;BME280;22004;49.120;-0.200;2023-04-29T08:18:13;101806.41;;;13.96;74.83
35910;BME280;22004;49.120;-0.200;2023-04-29T08:20:39;101812.31;;;13.91;75.02
35910;BME280;22004;49.120;-0.200;2023-04-29T08:23:04;101810.13;;;13.95;75.08
35910;BME280;22004;49.120;-0.200;2023-04-29T08:25:29;101822.44;;;13.98;74.48
35910;BME280;22004;49.120;-0.200;2023-04-29T08:27:55;101825.78;;;14.00;74.36
35910;BME280;22004;49.120;-0.200;2023-04-29T08:30:21;101816.66;;;14.01;74.60
35910;BME280;22004;49.120;-0.200;2023-04-29T08:32:47;101822.69;;;13.80;75.37
35910;BME280;22004;49.120;-0.200;2023-04-29T08:35:12;101829.81;;;13.73;75.96
35910;BME280;22004;49.120;-0.200;2023-04-29T08:37:38;101831.28;;;13.83;75.97
35910;BME280;22004;49.120;-0.200;2023-04-29T08:40:03;101831.06;;;13.93;74.90
35910;BME280;22004;49.120;-0.200;2023-04-29T08:42:34;101833.72;;;14.01;74.94
35910;BME280;22004;49.120;-0.200;2023-04-29T08:45:00;101841.38;;;13.89;75.22
35910;BME280;22004;49.120;-0.200;2023-04-29T08:47:29;101842.91;;;13.84;75.16
35910;BME280;22004;49.120;-0.200;2023-04-29T08:49:55;101847.38;;;13.52;76.72
35910;BME280;22004;49.120;-0.200;2023-04-29T08:52:20;101838.44;;;13.68;76.16
35910;BME280;22004;49.120;-0.200;2023-04-29T08:54:46;101845.88;;;13.97;75.06
35910;BME280;22004;49.120;-0.200;2023-04-29T08:57:11;101837.16;;;13.48;76.64
35910;BME280;22004;49.120;-0.200;2023-04-29T08:59:37;101850.22;;;14.06;74.68
35910;BME280;22004;49.120;-0.200;2023-04-29T09:02:05;101844.25;;;14.19;74.37
35910;BME280;22004;49.120;-0.200;2023-04-29T09:04:54;101844.28;;;13.71;75.63
35910;BME280;22004;49.120;-0.200;2023-04-29T09:07:23;101848.47;;;13.35;77.49
35910;BME280;22004;49.120;-0.200;2023-04-29T09:09:50;101846.00;;;13.73;75.07
35910;BME280;22004;49.120;-0.200;2023-04-29T09:12:16;101850.69;;;12.99;78.46
35910;BME280;22004;49.120;-0.200;2023-04-29T09:14:42;101852.50;;;13.14;78.54
35910;BME280;22004;49.120;-0.200;2023-04-29T09:17:07;101852.50;;;13.31;77.91
35910;BME280;22004;49.120;-0.200;2023-04-29T09:19:34;101848.59;;;13.50;76.97
35910;BME280;22004;49.120;-0.200;2023-04-29T09:22:01;101853.59;;;13.61;76.33
35910;BME280;22004;49.120;-0.200;2023-04-29T09:24:29;101865.31;;;13.20;76.97
35910;BME280;22004;49.120;-0.200;2023-04-29T09:26:55;101856.53;;;14.21;74.48
35910;BME280;22004;49.120;-0.200;2023-04-29T09:29:21;101866.38;;;14.14;74.37
35910;BME280;22004;49.120;-0.200;2023-04-29T09:31:46;101869.97;;;13.67;76.66
35910;BME280;22004;49.120;-0.200;2023-04-29T09:34:13;101867.63;;;13.56;77.07
35910;BME280;22004;49.120;-0.200;2023-04-29T09:36:42;101872.63;;;13.76;76.41
35910;BME280;22004;49.120;-0.200;2023-04-29T09:44:19;101881.44;;;14.09;75.13
35910;BME280;22004;49.120;-0.200;2023-04-29T09:47:06;101885.94;;;14.16;75.12
35910;BME280;22004;49.120;-0.200;2023-04-29T09:49:34;101876.69;;;13.71;76.29
35910;BME280;22004;49.120;-0.200;2023-04-29T09:52:14;101891.66;;;14.21;74.50
35910;BME280;22004;49.120;-0.200;2023-04-29T09:54:41;101875.31;;;13.84;76.38
35910;BME280;22004;49.120;-0.200;2023-04-29T09:57:08;101884.59;;;14.20;74.61
35910;BME280;22004;49.120;-0.200;2023-04-29T09:59:36;101879.03;;;13.75;77.00
35910;BME280;22004;49.120;-0.200;2023-04-29T10:04:40;101871.53;;;14.63;73.44
35910;BME280;22004;49.120;-0.200;2023-04-29T10:07:07;101867.63;;;14.66;73.95
35910;BME280;22004;49.120;-0.200;2023-04-29T10:09:34;101873.03;;;14.89;72.86
35910;BME280;22004;49.120;-0.200;2023-04-29T10:12:03;101866.72;;;14.51;76.00
35910;BME280;22004;49.120;-0.200;2023-04-29T10:14:30;101867.28;;;14.38;75.76
35910;BME280;22004;49.120;-0.200;2023-04-29T10:17:09;101868.91;;;14.47;74.59
35910;BME280;22004;49.120;-0.200;2023-04-29T10:19:59;101867.38;;;14.98;74.43
35910;BME280;22004;49.120;-0.200;2023-04-29T10:22:45;101870.47;;;14.72;75.11
35910;BME280;22004;49.120;-0.200;2023-04-29T10:25:12;101863.16;;;14.96;73.31
35910;BME280;22004;49.120;-0.200;2023-04-29T10:27:41;101863.03;;;14.66;73.84
35910;BME280;22004;49.120;-0.200;2023-04-29T10:30:11;101867.59;;;15.12;72.63
35910;BME280;22004;49.120;-0.200;2023-04-29T10:32:39;101871.94;;;14.75;72.50
35910;BME280;22004;49.120;-0.200;2023-04-29T10:35:08;101873.75;;;14.83;72.92
35910;BME280;22004;49.120;-0.200;2023-04-29T10:37:38;101879.81;;;14.85;72.27
35910;BME280;22004;49.120;-0.200;2023-04-29T10:45:17;101874.22;;;15.24;71.81
35910;BME280;22004;49.120;-0.200;2023-04-29T10:53:14;101871.25;;;15.71;72.25
35910;BME280;22004;49.120;-0.200;2023-04-29T10:55:40;101872.34;;;16.07;70.24
35910;BME280;22004;49.120;-0.200;2023-04-29T10:58:36;101878.97;;;15.89;70.05
35910;BME280;22004;49.120;-0.200;2023-04-29T11:01:02;101883.53;;;15.89;70.62
35910;BME280;22004;49.120;-0.200;2023-04-29T11:06:12;101884.09;;;15.69;71.64
35910;BME280;22004;49.120;-0.200;2023-04-29T11:08:38;101882.50;;;16.05;68.35
35910;BME280;22004;49.120;-0.200;2023-04-29T11:11:07;101883.75;;;16.74;67.35
35910;BME280;22004;49.120;-0.200;2023-04-29T11:13:37;101873.63;;;15.81;69.26
35910;BME280;22004;49.120;-0.200;2023-04-29T11:16:07;101877.28;;;16.03;67.96
35910;BME280;22004;49.120;-0.200;2023-04-29T11:18:34;101884.00;;;15.63;68.06
35910;BME280;22004;49.120;-0.200;2023-04-29T11:23:37;101873.53;;;16.04;69.34
35910;BME280;22004;49.120;-0.200;2023-04-29T11:26:03;101873.63;;;16.47;68.98
35910;BME280;22004;49.120;-0.200;2023-04-29T11:28:30;101870.16;;;16.17;67.77
35910;BME280;22004;49.120;-0.200;2023-04-29T11:30:56;101867.56;;;16.09;68.63
35910;BME280;22004;49.120;-0.200;2023-04-29T11:33:22;101869.97;;;16.18;68.61
35910;BME280;22004;49.120;-0.200;2023-04-29T11:35:48;101866.38;;;15.96;68.79
35910;BME280;22004;49.120;-0.200;2023-04-29T11:38:14;101866.22;;;16.19;69.92
35910;BME280;22004;49.120;-0.200;2023-04-29T11:40:49;101865.78;;;16.01;69.24
35910;BME280;22004;49.120;-0.200;2023-04-29T11:43:18;101860.50;;;16.29;67.67
35910;BME280;22004;49.120;-0.200;2023-04-29T11:45:45;101858.72;;;17.00;66.56
35910;BME280;22004;49.120;-0.200;2023-04-29T11:48:24;101846.97;;;16.50;66.41
35910;BME280;22004;49.120;-0.200;2023-04-29T11:50:52;101847.13;;;16.85;66.99
35910;BME280;22004;49.120;-0.200;2023-04-29T11:53:20;101845.97;;;16.73;66.51
35910;BME280;22004;49.120;-0.200;2023-04-29T11:55:46;101842.41;;;16.94;69.09
35910;BME280;22004;49.120;-0.200;2023-04-29T11:58:13;101848.88;;;16.93;67.55
35910;BME280;22004;49.120;-0.200;2023-04-29T12:00:40;101843.75;;;16.62;67.77
35910;BME280;22004;49.120;-0.200;2023-04-29T12:03:18;101850.59;;;16.36;67.94
35910;BME280;22004;49.120;-0.200;2023-04-29T12:05:50;101845.34;;;16.35;68.18
35910;BME280;22004;49.120;-0.200;2023-04-29T12:08:23;101838.06;;;16.57;69.89
35910;BME280;22004;49.120;-0.200;2023-04-29T12:10:49;101842.72;;;16.84;68.39
35910;BME280;22004;49.120;-0.200;2023-04-29T12:13:16;101841.38;;;16.95;66.82
35910;BME280;22004;49.120;-0.200;2023-04-29T12:15:43;101842.78;;;16.48;66.39
35910;BME280;22004;49.120;-0.200;2023-04-29T12:18:09;101842.78;;;17.12;65.96
35910;BME280;22004;49.120;-0.200;2023-04-29T12:20:35;101843.66;;;17.82;65.40
35910;BME280;22004;49.120;-0.200;2023-04-29T12:23:15;101836.94;;;17.78;65.75
35910;BME280;22004;49.120;-0.200;2023-04-29T12:25:47;101842.94;;;17.39;64.79
35910;BME280;22004;49.120;-0.200;2023-04-29T12:28:14;101843.78;;;17.39;64.99
35910;BME280;22004;49.120;-0.200;2023-04-29T12:30:40;101846.00;;;16.58;67.85
35910;BME280;22004;49.120;-0.200;2023-04-29T12:33:08;101836.03;;;16.22;68.45
35910;BME280;22004;49.120;-0.200;2023-04-29T12:35:34;101847.06;;;16.21;69.54
35910;BME280;22004;49.120;-0.200;2023-04-29T12:38:01;101837.66;;;16.60;71.23
35910;BME280;22004;49.120;-0.200;2023-04-29T12:40:26;101841.59;;;16.36;68.39
35910;BME280;22004;49.120;-0.200;2023-04-29T12:42:52;101844.72;;;16.75;69.48
35910;BME280;22004;49.120;-0.200;2023-04-29T12:45:32;101841.03;;;17.67;67.15
35910;BME280;22004;49.120;-0.200;2023-04-29T12:47:58;101829.03;;;18.64;65.43
35910;BME280;22004;49.120;-0.200;2023-04-29T12:50:31;101829.50;;;16.96;64.29
35910;BME280;22004;49.120;-0.200;2023-04-29T12:52:57;101831.31;;;16.89;65.30
35910;BME280;22004;49.120;-0.200;2023-04-29T12:55:23;101820.75;;;16.72;66.19
35910;BME280;22004;49.120;-0.200;2023-04-29T12:57:48;101822.88;;;16.41;67.73
35910;BME280;22004;49.120;-0.200;2023-04-29T13:00:14;101821.97;;;16.34;67.47
35910;BME280;22004;49.120;-0.200;2023-04-29T13:02:39;101819.41;;;17.46;65.12
35910;BME280;22004;49.120;-0.200;2023-04-29T13:05:05;101824.25;;;17.92;63.34
35910;BME280;22004;49.120;-0.200;2023-04-29T13:07:30;101822.88;;;17.05;64.03
35910;BME280;22004;49.120;-0.200;2023-04-29T13:09:55;101825.41;;;16.85;67.10
35910;BME280;22004;49.120;-0.200;2023-04-29T13:12:21;101821.19;;;17.04;65.45
35910;BME280;22004;49.120;-0.200;2023-04-29T13:14:46;101821.00;;;17.34;62.85
35910;BME280;22004;49.120;-0.200;2023-04-29T13:17:11;101818.13;;;17.42;62.10